sensor_id;sensor_type;location;lat;lon;timestamp;P1;durP1;ratioP1;P2;durP2;ratioP2
9914;SDS011;4996;48.746;9.174;2023-02-28T00:00:07;3.97;;;2.00;;
9914;SDS011;4996;48.746;9.174;2023-02-28T00:02:37;2.88;;;1.45;;
9914;SDS011;4996;48.746;9.174;2023-02-28T00:05:03;2.20;;;1.90;;
9914;SDS011;4996;48.746;9.174;2023-02-28T00:07:30;4.13;;;2.45;;
9914;SDS011;4996;48.746;9.174;2023-02-28T00:09:56;2.95;;;2.33;;
9914;SDS011;4996;48.746;9.174;2023-02-28T00:12:22;3.47;;;1.60;;
9914;SDS011;4996;48.746;9.174;2023-02-28T00:14:48;7.47;;;2.27;;
9914;SDS011;4996;48.746;9.174;2023-02-28T00:17:13;2.20;;;1.85;;
9914;SDS011;4996;48.746;9.174;2023-02-28T00:19:39;2.20;;;1.67;;
9914;SDS011;4996;48.746;9.174;2023-02-28T00:22:04;2.90;;;1.23;;
9914;SDS011;4996;48.746;9.174;2023-02-28T00:24:30;2.00;;;1.43;;
9914;SDS011;4996;48.746;9.174;2023-02-28T00:26:56;2.23;;;2.03;;
9914;SDS011;4996;48.746;9.174;2023-02-28T00:29:21;2.90;;;1.80;;
9914;SDS011;4996;48.746;9.174;2023-02-28T00:31:47;2.93;;;1.60;;
9914;SDS011;4996;48.746;9.174;2023-02-28T00:34:12;2.30;;;2.10;;
9914;SDS011;4996;48.746;9.174;2023-02-28T00:36:38;1.63;;;1.53;;
9914;SDS011;4996;48.746;9.174;2023-02-28T00:39:03;2.27;;;1.73;;
9914;SDS011;4996;48.746;9.174;2023-02-28T00:41:29;2.33;;;1.50;;
9914;SDS011;4996;48.746;9.174;2023-02-28T00:43:54;2.17;;;1.50;;
9914;SDS011;4996;48.746;9.174;2023-02-28T00:46:20;3.73;;;2.73;;
9914;SDS011;4996;48.746;9.174;2023-02-28T00:48:45;1.00;;;0.90;;
9914;SDS011;4996;48.746;9.174;2023-02-28T00:51:11;1.60;;;1.50;;
9914;SDS011;4996;48.746;9.174;2023-02-28T00:53:36;1.60;;;1.10;;
9914;SDS011;4996;48.746;9.174;2023-02-28T00:56:02;2.30;;;2.00;;
9914;SDS011;4996;48.746;9.174;2023-02-28T00:58:28;2.93;;;1.43;;
9914;SDS011;4996;48.746;9.174;2023-02-28T01:00:54;3.20;;;1.90;;
9914;SDS011;4996;48.746;9.174;2023-02-28T01:03:20;2.80;;;1.53;;
9914;SDS011;4996;48.746;9.174;2023-02-28T01:05:47;3.95;;;2.42;;
9914;SDS011;4996;48.746;9.174;2023-02-28T01:08:13;1.70;;;1.60;;
9914;SDS011;4996;48.746;9.174;2023-02-28T01:10:39;3.72;;;1.73;;
9914;SDS011;4996;48.746;9.174;2023-02-28T01:13:05;4.13;;;2.70;;
9914;SDS011;4996;48.746;9.174;2023-02-28T01:15:30;2.43;;;2.07;;
9914;SDS011;4996;48.746;9.174;2023-02-28T01:17:57;1.50;;;1.30;;
9914;SDS011;4996;48.746;9.174;2023-02-28T01:20:22;4.30;;;2.27;;
9914;SDS011;4996;48.746;9.174;2023-02-28T01:22:48;2.90;;;2.10;;
9914;SDS011;4996;48.746;9.174;2023-02-28T01:25:14;2.40;;;1.63;;
9914;SDS011;4996;48.746;9.174;2023-02-28T01:27:39;1.40;;;1.30;;
9914;SDS011;4996;48.746;9.174;2023-02-28T01:30:06;5.83;;;2.80;;
9914;SDS011;4996;48.746;9.174;2023-02-28T01:32:32;2.42;;;1.85;;
9914;SDS011;4996;48.746;9.174;2023-02-28T01:34:58;5.67;;;2.10;;
9914;SDS011;4996;48.746;9.174;2023-02-28T01:37:23;1.80;;;1.70;;
9914;SDS011;4996;48.746;9.174;2023-02-28T01:39:49;5.77;;;1.80;;
9914;SDS011;4996;48.746;9.174;2023-02-28T01:42:14;2.00;;;1.80;;
9914;SDS011;4996;48.746;9.174;2023-02-28T01:47:29;2.88;;;2.15;;
9914;SDS011;4996;48.746;9.174;2023-02-28T01:50:07;3.90;;;1.58;;
9914;SDS011;4996;48.746;9.174;2023-02-28T01:52:37;5.47;;;1.90;;
9914;SDS011;4996;48.746;9.174;2023-02-28T01:55:03;2.63;;;2.03;;
9914;SDS011;4996;48.746;9.174;2023-02-28T01:57:35;3.97;;;1.33;;
9914;SDS011;4996;48.746;9.174;2023-02-28T02:00:06;1.30;;;1.20;;
9914;SDS011;4996;48.746;9.174;2023-02-28T02:02:34;2.80;;;2.15;;
9914;SDS011;4996;48.746;9.174;2023-02-28T02:05:05;2.10;;;1.30;;
9914;SDS011;4996;48.746;9.174;2023-02-28T02:07:36;2.85;;;2.25;;
9914;SDS011;4996;48.746;9.174;2023-02-28T02:12:47;1.42;;;1.08;;
9914;SDS011;4996;48.746;9.174;2023-02-28T02:15:20;3.67;;;2.00;;
9914;SDS011;4996;48.746;9.174;2023-02-28T02:18:02;2.47;;;1.98;;
9914;SDS011;4996;48.746;9.174;2023-02-28T02:20:42;2.85;;;1.92;;
9914;SDS011;4996;48.746;9.174;2023-02-28T02:32:15;5.90;;;2.58;;
9914;SDS011;4996;48.746;9.174;2023-02-28T02:43:16;4.22;;;2.90;;
9914;SDS011;4996;48.746;9.174;2023-02-28T02:45:55;3.22;;;2.92;;
9914;SDS011;4996;48.746;9.174;2023-02-28T02:48:30;3.65;;;3.00;;
9914;SDS011;4996;48.746;9.174;2023-02-28T02:50:59;2.95;;;2.63;;
9914;SDS011;4996;48.746;9.174;2023-02-28T02:53:30;3.67;;;3.10;;
9914;SDS011;4996;48.746;9.174;2023-02-28T02:56:01;2.95;;;2.13;;
9914;SDS011;4996;48.746;9.174;2023-02-28T02:58:31;2.55;;;2.30;;
9914;SDS011;4996;48.746;9.174;2023-02-28T03:01:07;2.03;;;1.88;;
9914;SDS011;4996;48.746;9.174;2023-02-28T03:03:35;3.50;;;3.00;;
9914;SDS011;4996;48.746;9.174;2023-02-28T03:06:01;5.07;;;3.23;;
9914;SDS011;4996;48.746;9.174;2023-02-28T03:08:28;6.10;;;3.28;;
9914;SDS011;4996;48.746;9.174;2023-02-28T03:11:02;2.10;;;1.58;;
9914;SDS011;4996;48.746;9.174;2023-02-28T03:27:16;2.15;;;1.95;;
9914;SDS011;4996;48.746;9.174;2023-02-28T03:30:06;4.75;;;3.45;;
9914;SDS011;4996;48.746;9.174;2023-02-28T03:32:57;3.83;;;2.03;;
9914;SDS011;4996;48.746;9.174;2023-02-28T03:35:31;5.07;;;3.08;;
9914;SDS011;4996;48.746;9.174;2023-02-28T03:38:44;4.30;;;2.58;;
9914;SDS011;4996;48.746;9.174;2023-02-28T03:44:07;8.77;;;3.00;;
9914;SDS011;4996;48.746;9.174;2023-02-28T03:46:35;2.53;;;2.33;;
9914;SDS011;4996;48.746;9.174;2023-02-28T03:49:07;2.95;;;2.15;;
9914;SDS011;4996;48.746;9.174;2023-02-28T03:51:40;3.03;;;2.58;;
9914;SDS011;4996;48.746;9.174;2023-02-28T03:54:12;3.95;;;3.45;;
9914;SDS011;4996;48.746;9.174;2023-02-28T03:56:49;4.00;;;3.60;;
9914;SDS011;4996;48.746;9.174;2023-02-28T03:59:21;2.80;;;2.10;;
9914;SDS011;4996;48.746;9.174;2023-02-28T04:01:51;2.13;;;1.92;;
9914;SDS011;4996;48.746;9.174;2023-02-28T04:04:17;4.30;;;3.00;;
9914;SDS011;4996;48.746;9.174;2023-02-28T04:06:43;3.37;;;3.07;;
9914;SDS011;4996;48.746;9.174;2023-02-28T04:09:11;7.78;;;3.15;;
9914;SDS011;4996;48.746;9.174;2023-02-28T04:11:39;7.25;;;3.30;;
9914;SDS011;4996;48.746;9.174;2023-02-28T04:14:07;2.80;;;2.13;;
9914;SDS011;4996;48.746;9.174;2023-02-28T04:16:34;3.17;;;2.75;;
9914;SDS011;4996;48.746;9.174;2023-02-28T04:19:02;8.48;;;3.40;;
9914;SDS011;4996;48.746;9.174;2023-02-28T04:21:30;2.88;;;2.25;;
9914;SDS011;4996;48.746;9.174;2023-02-28T04:24:06;3.78;;;3.00;;
9914;SDS011;4996;48.746;9.174;2023-02-28T04:26:34;4.85;;;3.40;;
9914;SDS011;4996;48.746;9.174;2023-02-28T04:29:02;3.67;;;3.22;;
9914;SDS011;4996;48.746;9.174;2023-02-28T04:31:28;4.43;;;3.13;;
9914;SDS011;4996;48.746;9.174;2023-02-28T04:33:54;3.77;;;3.33;;
9914;SDS011;4996;48.746;9.174;2023-02-28T04:36:20;12.20;;;3.30;;
9914;SDS011;4996;48.746;9.174;2023-02-28T04:38:47;4.47;;;2.45;;
9914;SDS011;4996;48.746;9.174;2023-02-28T04:41:13;6.10;;;3.67;;
9914;SDS011;4996;48.746;9.174;2023-02-28T04:43:38;3.80;;;3.20;;
9914;SDS011;4996;48.746;9.174;2023-02-28T04:46:04;5.97;;;3.43;;
9914;SDS011;4996;48.746;9.174;2023-02-28T04:48:31;5.63;;;3.22;;
9914;SDS011;4996;48.746;9.174;2023-02-28T04:51:17;8.70;;;3.45;;
9914;SDS011;4996;48.746;9.174;2023-02-28T04:53:43;4.50;;;3.13;;
9914;SDS011;4996;48.746;9.174;2023-02-28T04:56:11;5.63;;;3.30;;
9914;SDS011;4996;48.746;9.174;2023-02-28T04:58:37;4.72;;;3.88;;
9914;SDS011;4996;48.746;9.174;2023-02-28T05:01:05;6.97;;;2.80;;
9914;SDS011;4996;48.746;9.174;2023-02-28T05:03:40;6.93;;;3.35;;
9914;SDS011;4996;48.746;9.174;2023-02-28T05:06:07;4.57;;;3.60;;
9914;SDS011;4996;48.746;9.174;2023-02-28T05:08:33;15.60;;;3.15;;
9914;SDS011;4996;48.746;9.174;2023-02-28T05:10:59;9.53;;;4.43;;
9914;SDS011;4996;48.746;9.174;2023-02-28T05:13:26;5.40;;;3.28;;
9914;SDS011;4996;48.746;9.174;2023-02-28T05:15:52;4.93;;;3.42;;
9914;SDS011;4996;48.746;9.174;2023-02-28T05:18:18;4.07;;;2.70;;
9914;SDS011;4996;48.746;9.174;2023-02-28T05:20:43;5.13;;;3.87;;
9914;SDS011;4996;48.746;9.174;2023-02-28T05:23:11;3.00;;;2.80;;
9914;SDS011;4996;48.746;9.174;2023-02-28T05:25:38;5.70;;;3.75;;
9914;SDS011;4996;48.746;9.174;2023-02-28T05:28:04;8.05;;;3.88;;
9914;SDS011;4996;48.746;9.174;2023-02-28T05:30:30;4.73;;;3.60;;
9914;SDS011;4996;48.746;9.174;2023-02-28T05:32:56;6.68;;;3.75;;
9914;SDS011;4996;48.746;9.174;2023-02-28T05:35:22;4.25;;;2.90;;
9914;SDS011;4996;48.746;9.174;2023-02-28T05:37:48;4.60;;;3.33;;
9914;SDS011;4996;48.746;9.174;2023-02-28T05:40:13;5.37;;;3.57;;
9914;SDS011;4996;48.746;9.174;2023-02-28T05:42:40;9.32;;;4.18;;
9914;SDS011;4996;48.746;9.174;2023-02-28T05:45:06;5.50;;;3.43;;
9914;SDS011;4996;48.746;9.174;2023-02-28T05:47:32;6.55;;;4.93;;
9914;SDS011;4996;48.746;9.174;2023-02-28T05:49:58;6.03;;;3.23;;
9914;SDS011;4996;48.746;9.174;2023-02-28T05:52:23;6.70;;;5.10;;
9914;SDS011;4996;48.746;9.174;2023-02-28T05:54:49;7.13;;;4.07;;
9914;SDS011;4996;48.746;9.174;2023-02-28T05:57:15;8.00;;;4.57;;
9914;SDS011;4996;48.746;9.174;2023-02-28T05:59:40;7.50;;;4.47;;
9914;SDS011;4996;48.746;9.174;2023-02-28T06:02:08;9.97;;;4.40;;
9914;SDS011;4996;48.746;9.174;2023-02-28T06:04:37;4.90;;;3.97;;
9914;SDS011;4996;48.746;9.174;2023-02-28T06:07:03;8.27;;;4.73;;
9914;SDS011;4996;48.746;9.174;2023-02-28T06:09:28;6.70;;;5.00;;
9914;SDS011;4996;48.746;9.174;2023-02-28T06:11:54;7.87;;;5.53;;
9914;SDS011;4996;48.746;9.174;2023-02-28T06:14:22;7.00;;;4.30;;
9914;SDS011;4996;48.746;9.174;2023-02-28T06:16:47;9.13;;;4.50;;
9914;SDS011;4996;48.746;9.174;2023-02-28T06:19:13;7.20;;;4.50;;
9914;SDS011;4996;48.746;9.174;2023-02-28T06:21:39;9.60;;;4.88;;
9914;SDS011;4996;48.746;9.174;2023-02-28T06:24:05;6.77;;;4.77;;
9914;SDS011;4996;48.746;9.174;2023-02-28T06:26:31;8.50;;;4.60;;
9914;SDS011;4996;48.746;9.174;2023-02-28T06:28:56;5.10;;;4.33;;
9914;SDS011;4996;48.746;9.174;2023-02-28T06:31:22;7.30;;;4.50;;
9914;SDS011;4996;48.746;9.174;2023-02-28T06:33:49;6.80;;;3.58;;
9914;SDS011;4996;48.746;9.174;2023-02-28T06:36:15;8.40;;;4.70;;
9914;SDS011;4996;48.746;9.174;2023-02-28T06:38:41;6.45;;;4.28;;
9914;SDS011;4996;48.746;9.174;2023-02-28T06:41:07;12.55;;;4.60;;
9914;SDS011;4996;48.746;9.174;2023-02-28T06:43:34;5.10;;;4.03;;
9914;SDS011;4996;48.746;9.174;2023-02-28T06:46:03;4.72;;;3.88;;
9914;SDS011;4996;48.746;9.174;2023-02-28T06:48:31;9.85;;;4.93;;
9914;SDS011;4996;48.746;9.174;2023-02-28T06:51:04;8.00;;;3.83;;
9914;SDS011;4996;48.746;9.174;2023-02-28T06:53:35;7.15;;;4.15;;
9914;SDS011;4996;48.746;9.174;2023-02-28T06:56:05;9.05;;;5.57;;
9914;SDS011;4996;48.746;9.174;2023-02-28T06:58:32;6.13;;;4.18;;
9914;SDS011;4996;48.746;9.174;2023-02-28T07:00:58;8.70;;;5.10;;
9914;SDS011;4996;48.746;9.174;2023-02-28T07:03:24;10.00;;;4.70;;
9914;SDS011;4996;48.746;9.174;2023-02-28T07:05:49;6.73;;;4.03;;
9914;SDS011;4996;48.746;9.174;2023-02-28T07:08:15;9.00;;;5.30;;
9914;SDS011;4996;48.746;9.174;2023-02-28T07:10:41;8.63;;;5.40;;
9914;SDS011;4996;48.746;9.174;2023-02-28T07:13:08;7.07;;;4.60;;
9914;SDS011;4996;48.746;9.174;2023-02-28T07:15:34;7.07;;;5.15;;
9914;SDS011;4996;48.746;9.174;2023-02-28T07:18:00;5.88;;;4.05;;
9914;SDS011;4996;48.746;9.174;2023-02-28T07:20:26;11.23;;;5.93;;
9914;SDS011;4996;48.746;9.174;2023-02-28T07:22:51;12.87;;;5.37;;
9914;SDS011;4996;48.746;9.174;2023-02-28T07:25:24;4.72;;;2.88;;
9914;SDS011;4996;48.746;9.174;2023-02-28T07:27:52;7.55;;;4.63;;
9914;SDS011;4996;48.746;9.174;2023-02-28T07:30:18;7.85;;;5.43;;
9914;SDS011;4996;48.746;9.174;2023-02-28T07:32:44;8.57;;;4.90;;
9914;SDS011;4996;48.746;9.174;2023-02-28T07:35:10;5.03;;;3.60;;
9914;SDS011;4996;48.746;9.174;2023-02-28T07:37:35;6.97;;;4.90;;
9914;SDS011;4996;48.746;9.174;2023-02-28T07:40:04;5.95;;;5.00;;
9914;SDS011;4996;48.746;9.174;2023-02-28T07:42:35;9.38;;;5.10;;
9914;SDS011;4996;48.746;9.174;2023-02-28T07:45:01;8.25;;;5.13;;
9914;SDS011;4996;48.746;9.174;2023-02-28T07:47:28;14.70;;;6.45;;
9914;SDS011;4996;48.746;9.174;2023-02-28T07:49:54;8.57;;;6.25;;
9914;SDS011;4996;48.746;9.174;2023-02-28T07:52:20;9.63;;;5.73;;
9914;SDS011;4996;48.746;9.174;2023-02-28T07:54:48;6.78;;;5.25;;
9914;SDS011;4996;48.746;9.174;2023-02-28T07:57:13;8.10;;;5.67;;
9914;SDS011;4996;48.746;9.174;2023-02-28T07:59:39;7.63;;;5.50;;
9914;SDS011;4996;48.746;9.174;2023-02-28T08:02:05;8.07;;;5.47;;
9914;SDS011;4996;48.746;9.174;2023-02-28T08:04:33;7.97;;;5.00;;
9914;SDS011;4996;48.746;9.174;2023-02-28T08:06:58;6.63;;;4.47;;
9914;SDS011;4996;48.746;9.174;2023-02-28T08:09:24;9.63;;;6.37;;
9914;SDS011;4996;48.746;9.174;2023-02-28T08:11:49;13.70;;;5.80;;
9914;SDS011;4996;48.746;9.174;2023-02-28T08:14:15;8.30;;;5.40;;
9914;SDS011;4996;48.746;9.174;2023-02-28T08:16:41;9.17;;;5.13;;
9914;SDS011;4996;48.746;9.174;2023-02-28T08:19:07;9.73;;;5.53;;
9914;SDS011;4996;48.746;9.174;2023-02-28T08:21:33;15.87;;;6.70;;
9914;SDS011;4996;48.746;9.174;2023-02-28T08:23:59;8.30;;;5.50;;
9914;SDS011;4996;48.746;9.174;2023-02-28T08:26:25;6.17;;;4.80;;
9914;SDS011;4996;48.746;9.174;2023-02-28T08:28:51;9.10;;;5.80;;
9914;SDS011;4996;48.746;9.174;2023-02-28T08:31:17;15.73;;;5.97;;
9914;SDS011;4996;48.746;9.174;2023-02-28T08:33:42;10.53;;;5.53;;
9914;SDS011;4996;48.746;9.174;2023-02-28T08:36:09;8.52;;;5.78;;
9914;SDS011;4996;48.746;9.174;2023-02-28T08:38:35;9.45;;;6.53;;
9914;SDS011;4996;48.746;9.174;2023-02-28T08:41:03;7.93;;;6.18;;
9914;SDS011;4996;48.746;9.174;2023-02-28T08:43:32;8.50;;;5.68;;
9914;SDS011;4996;48.746;9.174;2023-02-28T08:45:58;15.70;;;6.32;;
9914;SDS011;4996;48.746;9.174;2023-02-28T08:48:28;7.30;;;4.77;;
9914;SDS011;4996;48.746;9.174;2023-02-28T08:50:56;10.10;;;5.55;;
9914;SDS011;4996;48.746;9.174;2023-02-28T08:53:23;7.90;;;4.80;;
9914;SDS011;4996;48.746;9.174;2023-02-28T08:55:55;10.10;;;6.00;;
9914;SDS011;4996;48.746;9.174;2023-02-28T08:58:24;9.40;;;6.25;;
9914;SDS011;4996;48.746;9.174;2023-02-28T09:00:50;10.83;;;6.50;;
9914;SDS011;4996;48.746;9.174;2023-02-28T09:03:16;8.65;;;5.85;;
9914;SDS011;4996;48.746;9.174;2023-02-28T09:05:51;15.73;;;8.07;;
9914;SDS011;4996;48.746;9.174;2023-02-28T09:08:17;9.20;;;5.50;;
9914;SDS011;4996;48.746;9.174;2023-02-28T09:10:43;10.90;;;6.07;;
9914;SDS011;4996;48.746;9.174;2023-02-28T09:13:08;11.43;;;6.57;;
9914;SDS011;4996;48.746;9.174;2023-02-28T09:15:34;8.90;;;6.10;;
9914;SDS011;4996;48.746;9.174;2023-02-28T09:18:01;7.70;;;6.43;;
9914;SDS011;4996;48.746;9.174;2023-02-28T09:20:27;10.27;;;6.80;;
9914;SDS011;4996;48.746;9.174;2023-02-28T09:22:52;15.47;;;8.13;;
9914;SDS011;4996;48.746;9.174;2023-02-28T09:25:18;11.13;;;7.10;;
9914;SDS011;4996;48.746;9.174;2023-02-28T09:27:43;17.13;;;6.23;;
9914;SDS011;4996;48.746;9.174;2023-02-28T09:30:10;10.07;;;6.20;;
9914;SDS011;4996;48.746;9.174;2023-02-28T09:32:36;8.25;;;5.65;;
9914;SDS011;4996;48.746;9.174;2023-02-28T09:35:02;6.80;;;4.70;;
9914;SDS011;4996;48.746;9.174;2023-02-28T09:37:27;9.20;;;6.60;;
9914;SDS011;4996;48.746;9.174;2023-02-28T09:39:54;6.82;;;5.07;;
9914;SDS011;4996;48.746;9.174;2023-02-28T09:42:21;7.30;;;5.43;;
9914;SDS011;4996;48.746;9.174;2023-02-28T09:44:55;9.95;;;6.13;;
9914;SDS011;4996;48.746;9.174;2023-02-28T09:47:33;9.18;;;6.60;;
9914;SDS011;4996;48.746;9.174;2023-02-28T09:50:07;9.07;;;7.43;;
9914;SDS011;4996;48.746;9.174;2023-02-28T09:52:58;11.90;;;7.45;;
9914;SDS011;4996;48.746;9.174;2023-02-28T09:58:11;10.68;;;6.63;;
9914;SDS011;4996;48.746;9.174;2023-02-28T10:01:10;10.10;;;7.20;;
9914;SDS011;4996;48.746;9.174;2023-02-28T10:03:47;7.15;;;5.80;;
9914;SDS011;4996;48.746;9.174;2023-02-28T10:06:20;11.63;;;7.10;;
9914;SDS011;4996;48.746;9.174;2023-02-28T10:09:07;8.20;;;5.95;;
9914;SDS011;4996;48.746;9.174;2023-02-28T10:11:40;12.27;;;6.55;;
9914;SDS011;4996;48.746;9.174;2023-02-28T10:14:15;9.40;;;6.32;;
9914;SDS011;4996;48.746;9.174;2023-02-28T10:16:46;9.55;;;6.03;;
9914;SDS011;4996;48.746;9.174;2023-02-28T10:19:29;12.30;;;7.20;;
9914;SDS011;4996;48.746;9.174;2023-02-28T10:21:59;16.00;;;7.55;;
9914;SDS011;4996;48.746;9.174;2023-02-28T10:24:43;7.45;;;4.50;;
9914;SDS011;4996;48.746;9.174;2023-02-28T10:27:15;6.75;;;4.97;;
9914;SDS011;4996;48.746;9.174;2023-02-28T10:29:46;11.48;;;7.10;;
9914;SDS011;4996;48.746;9.174;2023-02-28T10:32:17;10.70;;;7.60;;
9914;SDS011;4996;48.746;9.174;2023-02-28T10:34:44;10.93;;;6.35;;
9914;SDS011;4996;48.746;9.174;2023-02-28T10:37:11;9.38;;;5.75;;
9914;SDS011;4996;48.746;9.174;2023-02-28T10:39:39;10.68;;;7.28;;
9914;SDS011;4996;48.746;9.174;2023-02-28T10:42:20;9.25;;;6.78;;
9914;SDS011;4996;48.746;9.174;2023-02-28T10:50:27;7.75;;;4.43;;
9914;SDS011;4996;48.746;9.174;2023-02-28T10:52:52;12.52;;;6.70;;
9914;SDS011;4996;48.746;9.174;2023-02-28T10:55:22;10.43;;;6.40;;
9914;SDS011;4996;48.746;9.174;2023-02-28T10:57:53;13.48;;;9.02;;
9914;SDS011;4996;48.746;9.174;2023-02-28T11:00:22;15.10;;;9.30;;
9914;SDS011;4996;48.746;9.174;2023-02-28T11:02:53;13.85;;;8.07;;
9914;SDS011;4996;48.746;9.174;2023-02-28T11:05:22;10.67;;;6.53;;
9914;SDS011;4996;48.746;9.174;2023-02-28T11:07:56;9.80;;;6.88;;
9914;SDS011;4996;48.746;9.174;2023-02-28T11:10:31;11.60;;;7.72;;
9914;SDS011;4996;48.746;9.174;2023-02-28T11:12:59;15.68;;;7.70;;
9914;SDS011;4996;48.746;9.174;2023-02-28T11:15:27;13.50;;;7.50;;
9914;SDS011;4996;48.746;9.174;2023-02-28T11:20:32;11.73;;;7.20;;
9914;SDS011;4996;48.746;9.174;2023-02-28T11:22:59;9.93;;;7.50;;
9914;SDS011;4996;48.746;9.174;2023-02-28T11:25:35;9.17;;;6.43;;
9914;SDS011;4996;48.746;9.174;2023-02-28T11:28:08;11.13;;;7.57;;
9914;SDS011;4996;48.746;9.174;2023-02-28T11:30:59;13.85;;;9.00;;
9914;SDS011;4996;48.746;9.174;2023-02-28T11:33:31;8.20;;;5.40;;
9914;SDS011;4996;48.746;9.174;2023-02-28T11:38:50;11.53;;;7.20;;
9914;SDS011;4996;48.746;9.174;2023-02-28T11:41:21;10.97;;;7.67;;
9914;SDS011;4996;48.746;9.174;2023-02-28T11:46:47;8.20;;;6.60;;
9914;SDS011;4996;48.746;9.174;2023-02-28T11:52:13;10.03;;;7.07;;
9914;SDS011;4996;48.746;9.174;2023-02-28T12:00:51;9.13;;;6.87;;
9914;SDS011;4996;48.746;9.174;2023-02-28T12:03:31;9.93;;;7.57;;
9914;SDS011;4996;48.746;9.174;2023-02-28T12:06:18;10.33;;;8.10;;
9914;SDS011;4996;48.746;9.174;2023-02-28T12:09:04;11.87;;;7.73;;
9914;SDS011;4996;48.746;9.174;2023-02-28T12:12:07;10.27;;;7.60;;
9914;SDS011;4996;48.746;9.174;2023-02-28T12:20:37;11.53;;;7.63;;
9914;SDS011;4996;48.746;9.174;2023-02-28T12:25:47;10.23;;;8.13;;
9914;SDS011;4996;48.746;9.174;2023-02-28T12:28:25;8.80;;;7.10;;
9914;SDS011;4996;48.746;9.174;2023-02-28T12:30:58;10.10;;;7.80;;
9914;SDS011;4996;48.746;9.174;2023-02-28T12:33:40;7.70;;;6.63;;
9914;SDS011;4996;48.746;9.174;2023-02-28T12:36:16;10.90;;;7.80;;
9914;SDS011;4996;48.746;9.174;2023-02-28T12:39:07;7.30;;;6.23;;
9914;SDS011;4996;48.746;9.174;2023-02-28T12:41:54;9.87;;;7.60;;
9914;SDS011;4996;48.746;9.174;2023-02-28T12:44:30;10.73;;;7.43;;
9914;SDS011;4996;48.746;9.174;2023-02-28T12:46:59;10.20;;;7.17;;
9914;SDS011;4996;48.746;9.174;2023-02-28T12:49:33;11.70;;;7.77;;
9914;SDS011;4996;48.746;9.174;2023-02-28T12:52:04;9.23;;;6.87;;
9914;SDS011;4996;48.746;9.174;2023-02-28T12:54:42;9.40;;;7.83;;
9914;SDS011;4996;48.746;9.174;2023-02-28T13:00:08;11.07;;;8.10;;
9914;SDS011;4996;48.746;9.174;2023-02-28T13:08:17;13.90;;;7.00;;
9914;SDS011;4996;48.746;9.174;2023-02-28T13:10:49;11.03;;;6.83;;
9914;SDS011;4996;48.746;9.174;2023-02-28T13:13:22;11.87;;;6.90;;
9914;SDS011;4996;48.746;9.174;2023-02-28T13:15:56;7.43;;;6.20;;
9914;SDS011;4996;48.746;9.174;2023-02-28T13:18:42;10.77;;;7.30;;
9914;SDS011;4996;48.746;9.174;2023-02-28T13:21:22;9.67;;;7.20;;
9914;SDS011;4996;48.746;9.174;2023-02-28T13:27:10;10.23;;;7.60;;
9914;SDS011;4996;48.746;9.174;2023-02-28T13:39:55;8.67;;;6.57;;
9914;SDS011;4996;48.746;9.174;2023-02-28T13:47:31;13.00;;;8.10;;
9914;SDS011;4996;48.746;9.174;2023-02-28T13:50:15;13.27;;;7.60;;
9914;SDS011;4996;48.746;9.174;2023-02-28T13:52:50;8.90;;;6.43;;
9914;SDS011;4996;48.746;9.174;2023-02-28T14:01:35;9.80;;;7.47;;
9914;SDS011;4996;48.746;9.174;2023-02-28T14:06:59;8.77;;;6.83;;
9914;SDS011;4996;48.746;9.174;2023-02-28T14:09:37;9.57;;;6.97;;
9914;SDS011;4996;48.746;9.174;2023-02-28T14:18:01;7.83;;;5.67;;
9914;SDS011;4996;48.746;9.174;2023-02-28T14:20:29;9.27;;;6.57;;
9914;SDS011;4996;48.746;9.174;2023-02-28T14:26:01;9.93;;;7.00;;
9914;SDS011;4996;48.746;9.174;2023-02-28T14:28:52;11.07;;;6.30;;
9914;SDS011;4996;48.746;9.174;2023-02-28T14:31:36;9.83;;;6.13;;
9914;SDS011;4996;48.746;9.174;2023-02-28T14:36:47;6.43;;;4.43;;
9914;SDS011;4996;48.746;9.174;2023-02-28T14:39:16;10.80;;;6.70;;
9914;SDS011;4996;48.746;9.174;2023-02-28T14:41:45;9.40;;;6.07;;
9914;SDS011;4996;48.746;9.174;2023-02-28T14:44:20;10.10;;;6.40;;
9914;SDS011;4996;48.746;9.174;2023-02-28T14:46:54;10.57;;;6.27;;
9914;SDS011;4996;48.746;9.174;2023-02-28T14:49:24;9.33;;;6.80;;
9914;SDS011;4996;48.746;9.174;2023-02-28T14:54:42;10.70;;;6.63;;
9914;SDS011;4996;48.746;9.174;2023-02-28T14:57:26;10.17;;;7.47;;
9914;SDS011;4996;48.746;9.174;2023-02-28T15:02:39;9.87;;;6.13;;
9914;SDS011;4996;48.746;9.174;2023-02-28T15:07:38;10.57;;;6.50;;
9914;SDS011;4996;48.746;9.174;2023-02-28T15:10:08;9.17;;;7.30;;
9914;SDS011;4996;48.746;9.174;2023-02-28T15:12:55;9.73;;;6.77;;
9914;SDS011;4996;48.746;9.174;2023-02-28T15:15:26;27.00;;;12.50;;
9914;SDS011;4996;48.746;9.174;2023-02-28T15:18:24;19.00;;;10.30;;
9914;SDS011;4996;48.746;9.174;2023-02-28T15:21:15;10.37;;;6.10;;
9914;SDS011;4996;48.746;9.174;2023-02-28T15:23:46;10.93;;;7.37;;
9914;SDS011;4996;48.746;9.174;2023-02-28T15:26:19;12.90;;;6.00;;
9914;SDS011;4996;48.746;9.174;2023-02-28T15:28:49;12.07;;;7.33;;
9914;SDS011;4996;48.746;9.174;2023-02-28T15:31:21;10.13;;;6.53;;
9914;SDS011;4996;48.746;9.174;2023-02-28T15:33:58;10.47;;;6.60;;
9914;SDS011;4996;48.746;9.174;2023-02-28T15:36:30;12.17;;;7.70;;
9914;SDS011;4996;48.746;9.174;2023-02-28T15:38:58;8.53;;;6.27;;
9914;SDS011;4996;48.746;9.174;2023-02-28T15:41:26;11.30;;;7.53;;
9914;SDS011;4996;48.746;9.174;2023-02-28T15:49:26;11.90;;;7.77;;
9914;SDS011;4996;48.746;9.174;2023-02-28T15:51:55;7.80;;;6.00;;
9914;SDS011;4996;48.746;9.174;2023-02-28T15:54:27;10.80;;;6.33;;
9914;SDS011;4996;48.746;9.174;2023-02-28T15:56:58;9.60;;;5.80;;
9914;SDS011;4996;48.746;9.174;2023-02-28T15:59:30;10.60;;;7.03;;
9914;SDS011;4996;48.746;9.174;2023-02-28T16:07:34;11.17;;;6.37;;
9914;SDS011;4996;48.746;9.174;2023-02-28T16:10:01;11.07;;;6.90;;
9914;SDS011;4996;48.746;9.174;2023-02-28T16:12:27;7.73;;;5.53;;
9914;SDS011;4996;48.746;9.174;2023-02-28T16:14:55;12.83;;;7.30;;
9914;SDS011;4996;48.746;9.174;2023-02-28T16:17:28;11.23;;;6.73;;
9914;SDS011;4996;48.746;9.174;2023-02-28T16:19:57;9.73;;;7.37;;
9914;SDS011;4996;48.746;9.174;2023-02-28T16:22:23;12.40;;;7.23;;
9914;SDS011;4996;48.746;9.174;2023-02-28T16:24:48;11.07;;;9.00;;
9914;SDS011;4996;48.746;9.174;2023-02-28T16:27:18;11.57;;;7.70;;
9914;SDS011;4996;48.746;9.174;2023-02-28T16:29:48;9.37;;;7.03;;
9914;SDS011;4996;48.746;9.174;2023-02-28T16:32:14;8.03;;;6.40;;
9914;SDS011;4996;48.746;9.174;2023-02-28T16:34:41;16.57;;;9.67;;
9914;SDS011;4996;48.746;9.174;2023-02-28T16:37:11;12.17;;;6.87;;
9914;SDS011;4996;48.746;9.174;2023-02-28T16:39:38;17.10;;;9.60;;
9914;SDS011;4996;48.746;9.174;2023-02-28T16:42:04;15.47;;;7.83;;
9914;SDS011;4996;48.746;9.174;2023-02-28T16:44:31;10.53;;;6.67;;
9914;SDS011;4996;48.746;9.174;2023-02-28T16:47:01;14.85;;;6.95;;
9914;SDS011;4996;48.746;9.174;2023-02-28T16:49:28;11.00;;;6.28;;
9914;SDS011;4996;48.746;9.174;2023-02-28T16:51:54;11.83;;;6.80;;
9914;SDS011;4996;48.746;9.174;2023-02-28T16:54:20;13.27;;;7.07;;
9914;SDS011;4996;48.746;9.174;2023-02-28T16:56:46;7.60;;;6.67;;
9914;SDS011;4996;48.746;9.174;2023-02-28T16:59:12;10.63;;;7.50;;
9914;SDS011;4996;48.746;9.174;2023-02-28T17:01:41;13.88;;;8.40;;
9914;SDS011;4996;48.746;9.174;2023-02-28T17:04:08;12.13;;;7.00;;
9914;SDS011;4996;48.746;9.174;2023-02-28T17:06:35;13.83;;;7.13;;
9914;SDS011;4996;48.746;9.174;2023-02-28T17:09:01;12.67;;;7.63;;
9914;SDS011;4996;48.746;9.174;2023-02-28T17:11:26;12.33;;;7.90;;
9914;SDS011;4996;48.746;9.174;2023-02-28T17:13:52;12.10;;;7.17;;
9914;SDS011;4996;48.746;9.174;2023-02-28T17:16:32;12.43;;;7.65;;
9914;SDS011;4996;48.746;9.174;2023-02-28T17:19:01;10.77;;;6.77;;
9914;SDS011;4996;48.746;9.174;2023-02-28T17:21:28;13.50;;;7.80;;
9914;SDS011;4996;48.746;9.174;2023-02-28T17:23:54;10.37;;;6.50;;
9914;SDS011;4996;48.746;9.174;2023-02-28T17:26:20;12.70;;;7.10;;
9914;SDS011;4996;48.746;9.174;2023-02-28T17:28:46;11.60;;;8.55;;
9914;SDS011;4996;48.746;9.174;2023-02-28T17:31:13;12.80;;;8.05;;
9914;SDS011;4996;48.746;9.174;2023-02-28T17:33:38;14.70;;;7.67;;
9914;SDS011;4996;48.746;9.174;2023-02-28T17:36:04;12.30;;;7.57;;
9914;SDS011;4996;48.746;9.174;2023-02-28T17:38:30;12.48;;;7.13;;
9914;SDS011;4996;48.746;9.174;2023-02-28T17:40:55;11.23;;;7.50;;
9914;SDS011;4996;48.746;9.174;2023-02-28T17:43:25;11.85;;;7.47;;
9914;SDS011;4996;48.746;9.174;2023-02-28T17:45:52;14.10;;;7.93;;